Time;durP1;ratioP1;P1;durP2;ratioP2;P2;SDS_P1;SDS_P2;PMS_P1;PMS_P2;Temp;Humidity;BMP_temperature;BMP_pressure;BME280_temperature;BME280_humidity;BME280_pressure;Samples;Min_cycle;Max_cycle;Signal;HPM_P1;HPM_P2
2024/01/14 00:00:32;;;;;;;16.65;7.47;;;-2.00;1.00;;;;;;5262912;28;20754;-30
2024/01/14 00:03:04;;;;;;;14.30;6.63;;;-2.00;1.00;;;;;;5268493;28;20028;-31
2024/01/14 00:05:35;;;;;;;20.50;9.23;;;-2.10;1.00;;;;;;5268616;28;20024;-31
2024/01/14 00:08:07;;;;;;;18.17;9.43;;;-2.10;1.00;;;;;;5269029;28;20046;-31
2024/01/14 00:10:38;;;;;;;17.70;8.23;;;-2.10;1.00;;;;;;5270122;28;20044;-31
2024/01/14 00:13:09;;;;;;;11.13;6.37;;;-2.10;1.00;;;;;;5269396;28;20054;-31
2024/01/14 00:15:42;;;;;;;12.70;7.20;;;-2.10;1.00;;;;;;5248864;28;20032;-31
2024/01/14 00:18:13;;;;;;;20.97;8.50;;;-2.10;1.00;;;;;;5251573;28;20033;-30
2024/01/14 00:20:50;;;;;;;20.23;9.37;;;-2.20;1.00;;;;;;5269338;28;20019;-31
2024/01/14 00:23:26;;;;;;;19.83;9.35;;;-2.10;1.00;;;;;;5268979;28;20024;-31
2024/01/14 00:26:02;;;;;;;14.90;8.23;;;-2.20;1.00;;;;;;5251336;28;20604;-31
2024/01/14 00:28:34;;;;;;;13.83;7.33;;;-2.20;1.00;;;;;;5284413;28;20040;-30
2024/01/14 00:31:05;;;;;;;18.57;7.87;;;-2.20;1.00;;;;;;5265187;28;20223;-30
2024/01/14 00:33:41;;;;;;;20.50;8.40;;;-2.20;6.40;;;;;;5269676;28;20034;-31
2024/01/14 00:36:15;;;;;;;21.33;8.20;;;-2.30;23.30;;;;;;5248043;28;20351;-30
2024/01/14 00:38:51;;;;;;;16.40;7.70;;;-2.20;1.00;;;;;;5230731;28;20028;-31
2024/01/14 00:41:25;;;;;;;14.70;6.67;;;-2.20;1.00;;;;;;5248288;28;20036;-30
2024/01/14 00:44:02;;;;;;;21.55;11.27;;;-2.20;1.00;;;;;;5233002;28;20027;-31
2024/01/14 00:46:36;;;;;;;16.57;8.07;;;-2.20;1.00;;;;;;5247654;28;20377;-30
2024/01/14 00:49:13;;;;;;;18.50;8.23;;;-2.20;1.00;;;;;;5269772;28;20027;-30
2024/01/14 00:51:49;;;;;;;18.27;7.57;;;-2.20;1.00;;;;;;5268076;28;20032;-31
2024/01/14 00:54:23;;;;;;;15.43;8.17;;;-2.20;1.00;;;;;;5250926;28;20308;-30
2024/01/14 00:56:56;;;;;;;19.08;7.30;;;-2.20;1.00;;;;;;5249192;28;20031;-30
2024/01/14 00:59:27;;;;;;;19.98;8.13;;;-2.10;1.00;;;;;;5266334;28;20020;-31
2024/01/14 01:01:59;;;;;;;17.70;8.40;;;-2.10;1.00;;;;;;5247894;28;20042;-30
2024/01/14 01:04:30;;;;;;;19.17;7.60;;;-2.10;1.00;;;;;;5268939;28;20034;-30
2024/01/14 01:07:06;;;;;;;23.80;10.03;;;-2.10;99.90;;;;;;5268915;28;20027;-32
2024/01/14 01:09:40;;;;;;;17.00;7.05;;;-2.10;99.90;;;;;;5268165;28;20036;-30
2024/01/14 01:12:11;;;;;;;19.30;7.67;;;-2.10;99.90;;;;;;5269504;28;20036;-31
2024/01/14 01:14:47;;;;;;;18.10;8.57;;;-2.10;99.90;;;;;;5269536;28;20030;-30
2024/01/14 01:17:20;;;;;;;18.03;9.00;;;-2.10;99.90;;;;;;5250830;28;20024;-30
2024/01/14 01:19:56;;;;;;;21.55;7.78;;;-2.10;99.90;;;;;;5254240;28;20033;-30
2024/01/14 01:22:30;;;;;;;14.43;6.90;;;-2.10;99.90;;;;;;5251930;28;20037;-30
2024/01/14 01:25:02;;;;;;;18.90;7.63;;;-2.10;99.90;;;;;;5268538;28;20054;-30
2024/01/14 01:27:36;;;;;;;14.70;7.07;;;-2.10;99.90;;;;;;5273295;28;20036;-30
2024/01/14 01:30:08;;;;;;;18.77;9.20;;;-2.10;99.90;;;;;;5268708;28;20340;-30
2024/01/14 01:32:42;;;;;;;14.93;7.60;;;-2.10;99.90;;;;;;5254227;28;20043;-31
2024/01/14 01:35:18;;;;;;;17.05;9.23;;;-2.10;99.90;;;;;;5268764;28;20049;-31
2024/01/14 01:37:57;;;;;;;19.47;7.73;;;-2.10;99.90;;;;;;5236312;28;20032;-31
2024/01/14 01:40:29;;;;;;;22.73;10.13;;;-2.10;99.90;;;;;;5253994;28;20281;-32
2024/01/14 01:43:00;;;;;;;16.47;7.87;;;-2.10;99.90;;;;;;5255317;28;20032;-31
2024/01/14 01:45:35;;;;;;;16.53;7.77;;;-2.00;99.90;;;;;;5268523;28;20252;-30
2024/01/14 01:48:09;;;;;;;15.23;6.60;;;-2.10;99.90;;;;;;5272404;28;20042;-31
2024/01/14 01:50:43;;;;;;;18.15;7.60;;;-2.00;99.90;;;;;;5272733;28;20181;-30
2024/01/14 01:53:17;;;;;;;15.47;8.70;;;-2.10;99.90;;;;;;5272886;28;20197;-30
2024/01/14 01:55:52;;;;;;;21.40;9.30;;;-2.20;99.90;;;;;;5271728;28;20032;-30
2024/01/14 01:58:26;;;;;;;23.60;7.97;;;-2.10;1.00;;;;;;5272261;28;20314;-30
2024/01/14 02:01:00;;;;;;;13.68;7.95;;;-2.10;1.00;;;;;;5268512;28;20403;-30
2024/01/14 02:03:34;;;;;;;11.10;6.77;;;-2.10;1.00;;;;;;5271828;28;20129;-30
2024/01/14 02:06:05;;;;;;;;;;;-2.10;1.00;;;;;;5271984;28;20032;-30
2024/01/14 02:08:39;;;;;;;19.43;8.80;;;-2.20;1.00;;;;;;5272776;28;20251;-30
2024/01/14 02:11:10;;;;;;;;;;;-2.20;1.00;;;;;;5284407;28;20040;-30
2024/01/14 02:13:44;;;;;;;20.10;8.73;;;-2.30;1.00;;;;;;5271268;28;20089;-31
2024/01/14 02:16:20;;;;;;;14.00;7.35;;;-2.20;1.00;;;;;;5251449;28;20030;-31
2024/01/14 02:18:55;;;;;;;17.27;6.70;;;-2.20;1.00;;;;;;5254621;28;20304;-30
2024/01/14 02:21:34;;;;;;;21.17;7.85;;;-2.20;1.00;;;;;;5271607;28;20028;-30
2024/01/14 02:24:11;;;;;;;22.60;10.15;;;-2.20;1.00;;;;;;5271305;28;20054;-31
2024/01/14 02:26:42;;;;;;;18.23;9.43;;;-2.20;1.00;;;;;;5271049;28;20030;-31
2024/01/14 02:29:13;;;;;;;12.87;6.50;;;-2.20;1.00;;;;;;5252927;28;20050;-31
2024/01/14 02:31:47;;;;;;;14.47;6.27;;;-2.10;1.00;;;;;;5249831;28;20323;-31
2024/01/14 02:34:21;;;;;;;12.73;7.75;;;-2.10;1.00;;;;;;5272239;28;20028;-31
2024/01/14 02:36:54;;;;;;;13.30;7.47;;;-2.10;1.00;;;;;;5271147;28;20028;-31
2024/01/14 02:39:25;;;;;;;10.45;6.18;;;-2.10;1.00;;;;;;5235927;28;20024;-31
2024/01/14 02:41:59;;;;;;;18.10;8.57;;;-2.10;1.00;;;;;;5271661;28;20050;-31
2024/01/14 02:44:35;;;;;;;;;;;-2.10;1.00;;;;;;5254144;28;20035;-31
2024/01/14 02:47:09;;;;;;;14.07;8.40;;;-2.10;1.00;;;;;;5250391;28;19916;-31
2024/01/14 02:49:42;;;;;;;10.52;5.70;;;-2.10;1.00;;;;;;5272866;28;20228;-31
2024/01/14 02:52:16;;;;;;;23.75;8.60;;;-2.10;1.00;;;;;;5250056;28;20070;-30
2024/01/14 02:54:50;;;;;;;12.25;6.13;;;-2.10;1.00;;;;;;5268882;28;20291;-30
2024/01/14 02:57:28;;;;;;;16.50;6.97;;;-2.10;1.00;;;;;;5268547;28;20032;-30
2024/01/14 03:00:03;;;;;;;12.30;7.37;;;-2.00;1.00;;;;;;5270467;28;20316;-30
2024/01/14 03:02:36;;;;;;;18.70;6.77;;;-1.90;1.00;;;;;;5254910;28;20034;-30
2024/01/14 03:05:10;;;;;;;14.95;7.63;;;-1.90;1.00;;;;;;5241816;28;20027;-30
2024/01/14 03:07:41;;;;;;;14.02;7.15;;;-1.90;1.00;;;;;;5271002;28;20366;-30
2024/01/14 03:10:12;;;;;;;15.20;6.63;;;-1.90;1.00;;;;;;5263548;28;20196;-30
2024/01/14 03:12:44;;;;;;;17.10;7.23;;;-1.90;1.00;;;;;;5253686;28;20036;-36
2024/01/14 03:15:20;;;;;;;15.27;7.38;;;-1.90;1.00;;;;;;5229463;28;20227;-30
2024/01/14 03:17:54;;;;;;;13.50;6.93;;;-1.80;1.00;;;;;;5231628;28;20209;-31
2024/01/14 03:20:25;;;;;;;13.15;6.45;;;-1.90;1.00;;;;;;5271283;28;20024;-31
2024/01/14 03:22:57;;;;;;;15.97;7.10;;;-1.80;1.00;;;;;;5270854;28;20328;-31
2024/01/14 03:25:30;;;;;;;8.68;5.05;;;-1.90;1.00;;;;;;5271340;28;20242;-31
2024/01/14 03:28:08;;;;;;;13.57;6.80;;;-1.90;1.00;;;;;;5269928;28;20030;-30
2024/01/14 03:30:39;;;;;;;14.53;6.77;;;-1.80;1.00;;;;;;5244928;28;20036;-30
2024/01/14 03:33:10;;;;;;;8.27;4.43;;;-1.80;1.00;;;;;;5262636;28;20231;-30
2024/01/14 03:35:41;;;;;;;9.90;5.73;;;-1.80;1.00;;;;;;5270234;28;20031;-30
2024/01/14 03:38:13;;;;;;;10.95;5.38;;;-1.80;99.90;;;;;;5252027;28;20042;-30
2024/01/14 03:40:47;;;;;;;12.15;4.95;;;-1.70;99.90;;;;;;5252334;28;20255;-30
2024/01/14 03:43:21;;;;;;;7.50;5.05;;;-1.70;99.90;;;;;;5251674;28;20020;-30
2024/01/14 03:45:52;;;;;;;8.52;4.68;;;-1.70;99.90;;;;;;5266917;28;20054;-30
2024/01/14 03:48:23;;;;;;;8.80;4.53;;;-1.80;99.90;;;;;;5270885;28;20031;-32
2024/01/14 03:50:56;;;;;;;9.82;4.07;;;-1.80;99.90;;;;;;5269037;28;20024;-32
2024/01/14 03:53:31;;;;;;;6.90;4.35;;;-1.70;99.90;;;;;;5243397;28;20030;-31
2024/01/14 03:56:03;;;;;;;6.35;3.72;;;-1.80;99.90;;;;;;5252373;28;20032;-31
2024/01/14 03:58:34;;;;;;;9.32;4.88;;;-1.80;1.00;;;;;;5247485;28;20042;-31
2024/01/14 04:01:07;;;;;;;11.30;3.55;;;-1.80;1.00;;;;;;5250371;28;20341;-31
2024/01/14 04:03:38;;;;;;;5.78;3.70;;;-1.80;1.00;;;;;;5272567;28;20463;-30
2024/01/14 04:06:18;;;;;;;9.25;4.47;;;-1.80;1.00;;;;;;5272117;28;20039;-30
2024/01/14 04:08:52;;;;;;;8.13;4.00;;;-1.80;99.90;;;;;;5272692;28;20031;-30
2024/01/14 04:11:26;;;;;;;;;;;-1.80;1.00;;;;;;5272451;28;20048;-33
2024/01/14 04:14:00;;;;;;;6.70;4.32;;;-1.70;99.90;;;;;;5271545;28;19914;-31
2024/01/14 04:16:44;;;;;;;8.60;3.47;;;-1.70;99.90;;;;;;5269207;28;20050;-31
2024/01/14 04:19:15;;;;;;;5.43;3.72;;;-1.70;99.90;;;;;;5266292;28;20320;-30
2024/01/14 04:21:50;;;;;;;4.90;3.27;;;-1.60;99.90;;;;;;5259964;28;20038;-31
2024/01/14 04:24:26;;;;;;;6.57;3.63;;;-1.70;99.90;;;;;;5271985;28;20291;-30
2024/01/14 04:27:00;;;;;;;6.18;2.72;;;-1.70;99.90;;;;;;5253272;28;20022;-30
2024/01/14 04:29:31;;;;;;;9.15;3.85;;;-1.60;99.90;;;;;;5272311;28;20108;-32
2024/01/14 04:32:06;;;;;;;7.80;4.25;;;-1.50;99.90;;;;;;5269096;28;20263;-30
2024/01/14 04:34:43;;;;;;;6.50;3.42;;;-1.50;99.90;;;;;;5254396;28;20034;-30
2024/01/14 04:37:20;;;;;;;4.97;3.47;;;-1.50;83.70;;;;;;5271934;28;20034;-30
2024/01/14 04:39:52;;;;;;;6.47;3.15;;;-1.50;86.40;;;;;;5272685;28;20012;-30
2024/01/14 04:42:28;;;;;;;5.00;3.00;;;-1.50;99.90;;;;;;5272700;28;20030;-30
2024/01/14 04:45:02;;;;;;;4.95;3.00;;;-1.40;58.60;;;;;;5253784;28;20039;-34
2024/01/14 04:47:34;;;;;;;5.82;2.85;;;-1.40;1.00;;;;;;5269640;28;20035;-31
2024/01/14 04:50:05;;;;;;;5.10;2.72;;;-1.40;1.00;;;;;;5270740;28;20293;-31
2024/01/14 04:52:36;;;;;;;9.57;3.78;;;-1.40;1.00;;;;;;5271610;28;20308;-31
2024/01/14 04:55:12;;;;;;;5.90;3.35;;;-1.40;19.50;;;;;;5271990;28;20045;-31
2024/01/14 04:57:43;;;;;;;6.95;2.80;;;-1.40;16.00;;;;;;5269862;28;20043;-31
2024/01/14 05:00:15;;;;;;;3.35;2.20;;;-1.40;18.60;;;;;;5268298;28;20030;-31
2024/01/14 05:02:52;;;;;;;4.30;2.45;;;-1.40;1.00;;;;;;5271195;28;20023;-31
2024/01/14 05:05:25;;;;;;;4.75;2.58;;;-1.40;4.70;;;;;;5253394;28;20036;-31
2024/01/14 05:07:57;;;;;;;4.88;2.25;;;-1.30;1.00;;;;;;5271558;28;20036;-31
2024/01/14 05:10:28;;;;;;;7.45;2.67;;;-1.30;8.40;;;;;;5252951;28;20042;-31
2024/01/14 05:12:59;;;;;;;5.40;2.30;;;-1.30;10.70;;;;;;5271205;28;20057;-31
2024/01/14 05:15:31;;;;;;;5.07;2.83;;;-1.30;6.00;;;;;;5249772;28;20242;-31
2024/01/14 05:18:05;;;;;;;2.88;1.90;;;-1.20;1.00;;;;;;5270290;28;20066;-31
2024/01/14 05:20:37;;;;;;;4.05;2.83;;;-1.20;1.00;;;;;;5270710;28;20020;-31
2024/01/14 05:23:10;;;;;;;4.68;2.60;;;-1.20;1.00;;;;;;5270850;28;20030;-31
2024/01/14 05:25:47;;;;;;;3.35;1.90;;;-1.20;2.90;;;;;;5270932;28;20024;-31
2024/01/14 05:28:23;;;;;;;4.80;2.30;;;-1.20;1.00;;;;;;5270651;28;20031;-31
2024/01/14 05:30:54;;;;;;;5.57;3.63;;;-1.20;1.00;;;;;;5267838;28;20024;-31
2024/01/14 05:33:25;;;;;;;2.85;1.90;;;-1.20;9.00;;;;;;5270865;28;20027;-31
2024/01/14 05:36:02;;;;;;;4.93;2.53;;;-1.20;1.00;;;;;;5270832;28;20028;-31
2024/01/14 05:38:39;;;;;;;4.25;2.20;;;-1.10;3.10;;;;;;5270772;28;20253;-31
2024/01/14 05:41:14;;;;;;;4.18;1.70;;;-1.10;1.00;;;;;;5270894;28;20044;-31
2024/01/14 05:43:51;;;;;;;4.53;2.45;;;-1.10;1.00;;;;;;5271016;28;20028;-33
2024/01/14 05:46:25;;;;;;;4.43;2.35;;;-1.10;1.00;;;;;;5267895;28;20043;-31
2024/01/14 05:48:58;;;;;;;3.72;1.77;;;-1.00;1.00;;;;;;5271191;28;20193;-31
2024/01/14 05:51:32;;;;;;;3.25;2.30;;;-1.00;1.00;;;;;;5285333;28;20328;-31
2024/01/14 05:54:04;;;;;;;2.92;2.50;;;-1.00;1.00;;;;;;5270442;28;20043;-30
2024/01/14 05:56:37;;;;;;;3.05;2.22;;;-1.00;1.00;;;;;;5269956;28;20032;-31
2024/01/14 05:59:11;;;;;;;3.17;2.33;;;-1.00;1.00;;;;;;5269823;28;20020;-30
2024/01/14 06:01:42;;;;;;;2.50;1.73;;;-1.00;1.00;;;;;;5268666;28;20042;-30
2024/01/14 06:04:16;;;;;;;3.70;2.40;;;-0.90;1.00;;;;;;5256215;28;20205;-31
2024/01/14 06:06:50;;;;;;;4.32;2.28;;;-1.00;1.00;;;;;;5274102;28;20192;-31
2024/01/14 06:09:23;;;;;;;3.35;1.95;;;-1.10;1.00;;;;;;5274673;28;20032;-36
2024/01/14 06:11:54;;;;;;;5.22;2.35;;;-1.10;1.00;;;;;;5239466;28;20441;-30
2024/01/14 06:14:25;;;;;;;3.95;2.35;;;-1.00;1.00;;;;;;5256605;28;20035;-30
2024/01/14 06:17:00;;;;;;;2.75;1.90;;;-1.00;1.00;;;;;;5271136;28;20054;-31
2024/01/14 06:19:31;;;;;;;;;;;-1.10;1.00;;;;;;5275092;28;20039;-30
2024/01/14 06:22:04;;;;;;;4.05;2.20;;;-1.00;1.00;;;;;;5273568;28;20400;-30
2024/01/14 06:24:35;;;;;;;3.58;2.20;;;-1.10;1.00;;;;;;5255742;28;20102;-30
2024/01/14 06:27:07;;;;;;;5.03;2.95;;;-1.00;1.00;;;;;;5274135;28;20038;-31
2024/01/14 06:29:40;;;;;;;2.58;1.73;;;-0.90;1.00;;;;;;5273935;28;20019;-31
2024/01/14 06:32:13;;;;;;;4.25;1.80;;;-0.80;1.00;;;;;;5270663;28;20024;-31
2024/01/14 06:34:47;;;;;;;4.03;2.45;;;-0.80;1.00;;;;;;5256739;28;20042;-30
2024/01/14 06:37:18;;;;;;;3.80;2.35;;;-0.70;1.00;;;;;;5263020;28;20024;-31
2024/01/14 06:39:49;;;;;;;3.95;1.85;;;-0.70;1.00;;;;;;5253405;28;20038;-30
2024/01/14 06:42:25;;;;;;;3.80;2.28;;;-0.70;1.00;;;;;;5251695;28;20059;-33
2024/01/14 06:44:58;;;;;;;1.83;1.60;;;-0.60;1.00;;;;;;5252567;28;20032;-31
2024/01/14 06:47:29;;;;;;;3.65;2.55;;;-0.60;1.00;;;;;;5244623;28;20369;-31
2024/01/14 06:50:01;;;;;;;5.40;2.55;;;-0.60;1.00;;;;;;5268323;28;20037;-31
2024/01/14 06:52:34;;;;;;;2.42;2.15;;;-0.60;1.00;;;;;;5238132;28;20043;-31
2024/01/14 06:55:08;;;;;;;4.03;2.40;;;-0.70;1.00;;;;;;5253015;28;20035;-31
2024/01/14 06:57:39;;;;;;;3.42;2.45;;;-0.60;1.00;;;;;;5251343;28;20042;-30
2024/01/14 07:00:10;;;;;;;3.10;2.05;;;-0.60;1.00;;;;;;5248675;28;20228;-31
2024/01/14 07:02:46;;;;;;;2.75;1.95;;;-0.70;1.00;;;;;;5252980;28;20020;-31
2024/01/14 07:05:20;;;;;;;4.45;2.38;;;-0.60;1.00;;;;;;5251846;28;20028;-31
2024/01/14 07:07:53;;;;;;;3.63;2.38;;;-0.70;1.00;;;;;;5251748;28;20035;-31
2024/01/14 07:10:26;;;;;;;1.58;1.33;;;-0.60;1.00;;;;;;5253131;28;20020;-31
2024/01/14 07:13:00;;;;;;;2.60;1.80;;;-0.50;1.00;;;;;;5252396;28;20033;-31
2024/01/14 07:15:34;;;;;;;2.83;2.20;;;-0.50;1.00;;;;;;5246454;28;20036;-31
2024/01/14 07:18:05;;;;;;;;;;;-0.50;1.00;;;;;;5267380;28;20040;-30
2024/01/14 07:20:36;;;;;;;3.58;2.03;;;-0.40;1.00;;;;;;5262656;28;19919;-31
2024/01/14 07:23:11;;;;;;;2.80;1.77;;;-0.40;1.00;;;;;;5248652;28;20051;-30
2024/01/14 07:25:47;;;;;;;2.55;1.77;;;-0.40;1.00;;;;;;5248802;28;20370;-31
2024/01/14 07:28:22;;;;;;;3.72;2.35;;;-0.30;1.00;;;;;;5252677;28;20030;-31
2024/01/14 07:30:56;;;;;;;2.33;1.60;;;-0.30;1.00;;;;;;5247578;28;20027;-30
2024/01/14 07:33:27;;;;;;;5.20;2.60;;;-0.20;1.00;;;;;;5251474;28;20032;-31
2024/01/14 07:35:59;;;;;;;4.72;2.15;;;-0.20;99.90;;;;;;5250476;28;20036;-30
2024/01/14 07:38:33;;;;;;;4.35;1.95;;;-0.10;99.90;;;;;;5251599;28;20032;-30
2024/01/14 07:41:08;;;;;;;;;;;0.00;99.90;;;;;;5251825;28;20021;-30
2024/01/14 07:43:42;;;;;;;2.70;1.98;;;0.00;99.90;;;;;;5252450;28;19909;-30
2024/01/14 07:46:14;;;;;;;2.85;1.98;;;-0.10;99.90;;;;;;5255996;28;20020;-30
2024/01/14 07:48:46;;;;;;;3.30;2.03;;;-0.10;99.90;;;;;;5272424;28;20420;-30
2024/01/14 07:51:17;;;;;;;2.60;1.75;;;-0.10;99.90;;;;;;5271808;28;20030;-30
2024/01/14 07:53:49;;;;;;;5.03;2.70;;;0.00;99.90;;;;;;5269977;28;20024;-33
2024/01/14 07:56:22;;;;;;;2.75;2.08;;;0.00;99.90;;;;;;5271134;28;20032;-33
2024/01/14 07:58:57;;;;;;;2.78;2.10;;;0.00;99.90;;;;;;5269486;28;20019;-33
2024/01/14 08:01:31;;;;;;;;;;;0.00;99.90;;;;;;5267644;28;20040;-33
2024/01/14 08:04:05;;;;;;;2.80;1.83;;;0.10;99.90;;;;;;5271803;28;19900;-33
2024/01/14 08:06:39;;;;;;;4.03;1.83;;;0.30;99.90;;;;;;5271332;28;20031;-33
2024/01/14 08:09:12;;;;;;;2.53;1.90;;;0.40;99.90;;;;;;5250714;28;20189;-33
2024/01/14 08:11:43;;;;;;;3.60;2.08;;;0.50;9.90;;;;;;5272288;28;20027;-33
2024/01/14 08:14:15;;;;;;;3.05;1.70;;;0.60;1.00;;;;;;5271223;28;20232;-33
2024/01/14 08:16:48;;;;;;;4.10;2.60;;;0.60;1.00;;;;;;5268163;28;20352;-33
2024/01/14 08:19:24;;;;;;;2.83;1.80;;;0.70;1.00;;;;;;5253292;28;20350;-33
2024/01/14 08:21:58;;;;;;;2.10;1.52;;;0.80;1.00;;;;;;5270831;28;20320;-33
2024/01/14 08:24:34;;;;;;;2.13;1.73;;;0.80;1.00;;;;;;5252206;28;20038;-33
2024/01/14 08:27:06;;;;;;;2.83;2.00;;;0.90;1.00;;;;;;5251683;28;20266;-33
2024/01/14 08:29:37;;;;;;;2.60;1.60;;;0.90;1.00;;;;;;5253232;28;20038;-33
2024/01/14 08:32:10;;;;;;;2.88;1.73;;;1.00;1.00;;;;;;5268225;28;20030;-33
2024/01/14 08:34:41;;;;;;;3.72;2.10;;;1.00;1.00;;;;;;5250317;28;20031;-33
2024/01/14 08:37:15;;;;;;;4.43;1.85;;;1.10;1.00;;;;;;5270187;28;20371;-33
2024/01/14 08:39:50;;;;;;;2.63;1.75;;;1.20;1.00;;;;;;5271277;28;20031;-31
2024/01/14 08:42:21;;;;;;;3.35;2.08;;;1.30;1.00;;;;;;5268791;28;20038;-31
2024/01/14 08:44:58;;;;;;;2.38;1.90;;;1.20;1.00;;;;;;5252029;28;20042;-31
2024/01/14 08:47:31;;;;;;;1.80;1.50;;;1.30;1.00;;;;;;5249051;28;20048;-32
2024/01/14 08:50:12;;;;;;;2.45;1.50;;;1.40;1.00;;;;;;5252949;28;20220;-32
2024/01/14 08:52:46;;;;;;;4.45;1.55;;;1.50;1.00;;;;;;5271093;28;20016;-31
2024/01/14 08:55:18;;;;;;;2.90;1.90;;;1.50;1.00;;;;;;5251456;28;20036;-32
2024/01/14 08:57:50;;;;;;;4.38;1.92;;;1.60;1.00;;;;;;5251503;28;20283;-32
2024/01/14 09:00:22;;;;;;;4.13;1.95;;;1.60;1.00;;;;;;5265981;28;20696;-32
2024/01/14 09:02:55;;;;;;;6.88;2.85;;;1.70;1.00;;;;;;5243942;28;20032;-31
2024/01/14 09:05:29;;;;;;;2.63;1.65;;;1.70;1.00;;;;;;5269626;28;20279;-31
2024/01/14 09:08:02;;;;;;;3.55;2.08;;;1.80;1.00;;;;;;5265230;28;20042;-31
2024/01/14 09:10:43;;;;;;;3.40;1.80;;;1.80;1.00;;;;;;5271303;28;20213;-31
2024/01/14 09:13:16;;;;;;;6.88;2.00;;;1.80;1.00;;;;;;5269900;28;20054;-32
2024/01/14 09:15:50;;;;;;;4.47;1.90;;;1.80;1.00;;;;;;5266214;28;20093;-31
2024/01/14 09:18:21;;;;;;;2.47;1.70;;;1.90;1.00;;;;;;5265750;28;20042;-31
2024/01/14 09:20:55;;;;;;;2.63;1.52;;;1.90;1.00;;;;;;5269981;28;20028;-31
2024/01/14 09:23:29;;;;;;;4.03;2.40;;;1.90;1.00;;;;;;5269116;28;20036;-31
2024/01/14 09:26:00;;;;;;;;;;;2.00;1.00;;;;;;5268415;28;20241;-32
2024/01/14 09:28:36;;;;;;;1.35;1.15;;;2.00;1.00;;;;;;5267063;28;19919;-36
2024/01/14 09:31:07;;;;;;;3.17;2.30;;;2.00;1.00;;;;;;5245550;28;20040;-30
2024/01/14 09:33:43;;;;;;;2.75;1.73;;;2.10;1.00;;;;;;5268701;28;20040;-31
2024/01/14 09:36:15;;;;;;;5.30;2.20;;;2.10;1.00;;;;;;5268726;28;20028;-31
2024/01/14 09:38:49;;;;;;;2.92;2.00;;;2.30;1.00;;;;;;5252887;28;20035;-31
2024/01/14 09:41:39;;;;;;;3.33;2.17;;;2.30;1.00;;;;;;5254310;28;20039;-31
2024/01/14 09:44:16;;;;;;;3.13;1.65;;;2.40;1.00;;;;;;5233493;28;20032;-31
2024/01/14 09:46:48;;;;;;;2.38;1.55;;;2.50;1.00;;;;;;5259383;28;20239;-32
2024/01/14 09:49:25;;;;;;;2.20;1.95;;;2.50;1.00;;;;;;5270403;28;20360;-32
2024/01/14 09:52:05;;;;;;;2.05;1.60;;;2.60;1.00;;;;;;5251389;28;20220;-32
2024/01/14 09:54:41;;;;;;;2.63;1.70;;;2.70;1.00;;;;;;5256460;28;20054;-32
2024/01/14 09:57:15;;;;;;;1.38;1.25;;;2.80;1.00;;;;;;5252215;28;20040;-32
2024/01/14 09:59:52;;;;;;;2.38;1.45;;;2.90;1.00;;;;;;5272116;28;20036;-32
2024/01/14 10:02:27;;;;;;;2.67;1.73;;;3.20;1.00;;;;;;5268817;28;20050;-33
2024/01/14 10:05:01;;;;;;;2.22;1.40;;;3.40;1.00;;;;;;5275376;28;20495;-32
2024/01/14 10:07:35;;;;;;;1.98;1.20;;;3.40;1.00;;;;;;5273149;28;20224;-32
2024/01/14 10:10:11;;;;;;;3.83;1.40;;;3.50;99.90;;;;;;5271349;28;20046;-31
2024/01/14 10:12:43;;;;;;;2.42;1.48;;;3.60;99.90;;;;;;5269173;28;20413;-31
2024/01/14 10:15:14;;;;;;;1.98;1.40;;;3.90;99.90;;;;;;5270221;28;20024;-31
2024/01/14 10:17:46;;;;;;;2.58;1.67;;;3.90;99.90;;;;;;5272114;28;20035;-32
2024/01/14 10:20:23;;;;;;;2.70;1.55;;;4.20;99.90;;;;;;5272195;28;20035;-32
2024/01/14 10:22:57;;;;;;;3.72;1.70;;;4.10;99.90;;;;;;5271821;28;20304;-32
2024/01/14 10:25:29;;;;;;;4.03;1.95;;;4.60;99.90;;;;;;5272231;28;20032;-33
2024/01/14 10:28:06;;;;;;;2.45;1.20;;;4.90;99.90;;;;;;5272252;28;20058;-33
2024/01/14 10:30:37;;;;;;;2.08;1.80;;;5.00;99.90;;;;;;5251816;28;20039;-32
2024/01/14 10:33:09;;;;;;;3.05;1.77;;;5.10;99.90;;;;;;5271871;28;20251;-32
2024/01/14 10:35:46;;;;;;;3.72;2.47;;;4.90;99.90;;;;;;5273353;28;20022;-32
2024/01/14 10:38:22;;;;;;;3.97;1.52;;;5.20;99.90;;;;;;5272767;28;20208;-32
2024/01/14 10:40:53;;;;;;;2.85;2.17;;;5.00;99.90;;;;;;5273630;28;20209;-32
2024/01/14 10:43:26;;;;;;;3.05;1.77;;;4.70;99.90;;;;;;5253821;28;20036;-32
2024/01/14 10:46:04;;;;;;;6.40;2.10;;;5.30;99.90;;;;;;5251484;28;20036;-32
2024/01/14 10:48:40;;;;;;;1.77;1.35;;;5.40;99.90;;;;;;5253312;28;20034;-31
2024/01/14 10:51:15;;;;;;;4.20;2.03;;;5.60;99.90;;;;;;5273156;28;20028;-32
2024/01/14 10:53:57;;;;;;;3.20;1.90;;;5.50;99.90;;;;;;5272196;28;20031;-32
2024/01/14 10:56:39;;;;;;;3.15;1.98;;;5.30;99.90;;;;;;5271785;28;20028;-31
2024/01/14 10:59:14;;;;;;;3.35;1.77;;;5.50;99.90;;;;;;5271359;28;20028;-31
2024/01/14 11:01:53;;;;;;;2.70;1.85;;;5.30;99.90;;;;;;5268638;28;20323;-32
2024/01/14 11:04:26;;;;;;;2.88;1.65;;;5.80;98.30;;;;;;5268226;28;20046;-32
2024/01/14 11:06:57;;;;;;;2.33;1.77;;;5.60;64.20;;;;;;5272322;28;20291;-32
2024/01/14 11:09:31;;;;;;;2.53;1.95;;;5.80;55.90;;;;;;5272915;28;20330;-32
2024/01/14 11:12:49;;;;;;;3.70;2.25;;;5.80;70.80;;;;;;5272611;28;20338;-33
2024/01/14 11:15:35;;;;;;;3.30;2.33;;;6.40;99.90;;;;;;5183288;28;20088;-33
2024/01/14 11:18:30;;;;;;;4.97;2.33;;;6.10;1.00;;;;;;5185521;28;20056;-36
2024/01/14 11:21:31;;;;;;;4.57;2.50;;;6.20;1.00;;;;;;5185805;28;20046;-33
2024/01/14 11:24:05;;;;;;;5.25;2.33;;;6.30;1.00;;;;;;5178953;28;20245;-33
2024/01/14 11:26:36;;;;;;;4.07;2.53;;;6.50;1.00;;;;;;5179125;28;20030;-35
2024/01/14 11:29:11;;;;;;;4.18;2.53;;;6.60;1.00;;;;;;5166868;28;20038;-33
2024/01/14 11:32:11;;;;;;;9.90;3.33;;;7.00;36.70;;;;;;5163870;28;20072;-33
2024/01/14 11:34:54;;;;;;;5.47;2.95;;;7.10;28.10;;;;;;5179850;28;20037;-33
2024/01/14 11:37:48;;;;;;;4.07;2.28;;;7.70;99.90;;;;;;5185605;28;20037;-33
2024/01/14 11:40:28;;;;;;;4.22;2.13;;;7.90;42.80;;;;;;5182310;28;20032;-32
2024/01/14 11:43:10;;;;;;;2.80;1.90;;;8.20;55.00;;;;;;5183177;28;20368;-32
2024/01/14 11:45:44;;;;;;;4.50;2.42;;;8.40;42.90;;;;;;5182610;28;20360;-33
2024/01/14 11:48:19;;;;;;;3.75;2.15;;;7.90;29.70;;;;;;5186036;28;20365;-33
2024/01/14 11:50:54;;;;;;;3.60;2.58;;;7.80;1.00;;;;;;5193469;28;20044;-33
2024/01/14 11:53:33;;;;;;;3.20;2.35;;;8.30;33.50;;;;;;5252345;28;20036;-33
2024/01/14 11:56:07;;;;;;;4.15;2.55;;;8.40;88.00;;;;;;5271537;28;20354;-33
2024/01/14 11:58:40;;;;;;;4.40;2.33;;;7.80;1.00;;;;;;5270571;28;20040;-33
2024/01/14 12:01:17;;;;;;;2.80;2.28;;;7.80;1.00;;;;;;5268300;28;20038;-33
2024/01/14 12:04:08;;;;;;;4.78;2.03;;;8.60;1.00;;;;;;5270393;28;20028;-33
2024/01/14 12:06:46;;;;;;;4.05;2.20;;;8.50;1.00;;;;;;5271437;28;20038;-33
2024/01/14 12:09:19;;;;;;;2.70;1.90;;;7.80;1.00;;;;;;5250447;28;20028;-31
2024/01/14 12:11:51;;;;;;;4.53;2.20;;;7.80;1.00;;;;;;5267930;28;20036;-31
2024/01/14 12:14:22;;;;;;;2.75;1.50;;;8.00;1.00;;;;;;5270181;28;20050;-31
2024/01/14 12:17:01;;;;;;;3.33;2.00;;;8.60;1.00;;;;;;5249367;28;20034;-36
2024/01/14 12:19:36;;;;;;;3.90;1.70;;;8.80;1.00;;;;;;5268602;28;20042;-32
2024/01/14 12:22:07;;;;;;;4.07;1.92;;;8.70;1.00;;;;;;5266879;28;20016;-32
2024/01/14 12:24:42;;;;;;;2.95;2.25;;;8.30;1.00;;;;;;5250536;28;20038;-32
2024/01/14 12:27:13;;;;;;;3.30;2.10;;;7.80;1.00;;;;;;5269762;28;20046;-33
2024/01/14 12:29:51;;;;;;;2.22;2.00;;;7.80;1.00;;;;;;5270757;28;20343;-32
2024/01/14 12:32:22;;;;;;;3.85;2.17;;;7.30;1.00;;;;;;5264724;28;20038;-32
2024/01/14 12:34:53;;;;;;;4.05;2.10;;;7.50;1.00;;;;;;5251661;28;20257;-32
2024/01/14 12:37:25;;;;;;;3.10;1.90;;;8.10;1.00;;;;;;5268657;28;20044;-32
2024/01/14 12:39:56;;;;;;;3.70;2.03;;;8.40;1.00;;;;;;5252443;28;20024;-32
2024/01/14 12:42:27;;;;;;;3.55;2.05;;;8.50;1.00;;;;;;5270016;28;20028;-33
2024/01/14 12:45:03;;;;;;;4.78;2.35;;;8.20;1.00;;;;;;5269896;28;20042;-33
2024/01/14 12:47:37;;;;;;;2.20;1.80;;;8.40;1.00;;;;;;5251328;28;20284;-33
2024/01/14 12:50:11;;;;;;;5.00;2.63;;;8.10;1.00;;;;;;5270088;28;20034;-33
2024/01/14 12:52:45;;;;;;;6.55;2.53;;;8.20;1.00;;;;;;5251053;28;20032;-31
2024/01/14 12:55:22;;;;;;;2.45;1.88;;;8.20;1.00;;;;;;5251512;28;20380;-31
2024/01/14 12:57:53;;;;;;;5.15;2.15;;;8.40;1.00;;;;;;5269051;28;20036;-33
2024/01/14 13:00:28;;;;;;;3.65;1.83;;;8.00;1.00;;;;;;5266030;28;20032;-32
2024/01/14 13:03:00;;;;;;;3.38;2.53;;;8.30;1.00;;;;;;5268815;28;20030;-32
2024/01/14 13:05:38;;;;;;;4.10;2.60;;;8.50;1.00;;;;;;5269890;28;20038;-32
2024/01/14 13:08:10;;;;;;;2.97;2.22;;;8.40;1.00;;;;;;5268010;28;20295;-34
2024/01/14 13:10:44;;;;;;;5.00;2.50;;;8.30;1.00;;;;;;5269510;28;20036;-34
2024/01/14 13:13:16;;;;;;;8.18;3.03;;;8.70;1.00;;;;;;5266960;28;20230;-33
2024/01/14 13:15:47;;;;;;;3.33;2.03;;;8.50;1.00;;;;;;5248254;28;20042;-32
2024/01/14 13:18:21;;;;;;;4.00;2.35;;;8.80;1.00;;;;;;5269765;28;20036;-32
2024/01/14 13:20:52;;;;;;;;;;;8.30;1.00;;;;;;5269506;28;20208;-32
2024/01/14 13:23:23;;;;;;;3.45;2.33;;;8.20;1.00;;;;;;5269098;28;19911;-32
2024/01/14 13:25:57;;;;;;;4.13;2.00;;;8.80;1.00;;;;;;5270529;28;20024;-33
2024/01/14 13:28:29;;;;;;;6.38;3.10;;;9.30;1.00;;;;;;5267248;28;20270;-31
2024/01/14 13:31:02;;;;;;;4.70;2.78;;;8.80;1.00;;;;;;5247856;28;20039;-31
2024/01/14 13:33:36;;;;;;;4.73;3.00;;;8.80;1.00;;;;;;5269146;28;20373;-32